Time;durP1;ratioP1;P1;durP2;ratioP2;P2;SDS_P1;SDS_P2;PMS_P1;PMS_P2;Temp;Humidity;BMP_temperature;BMP_pressure;BME280_temperature;BME280_humidity;BME280_pressure;Samples;Min_cycle;Max_cycle;Signal;HPM_P1;HPM_P2
2023/03/31 00:01:04;;;;;;;;;;;19.30;55.20;;;;;;6243581;28;19913;-68
2023/03/31 00:04:05;;;;;;;;;;;19.30;55.30;;;;;;6229297;28;19913;-68
2023/03/31 00:07:07;;;;;;;;;;;19.30;55.20;;;;;;6219433;28;19980;-67
2023/03/31 00:10:09;;;;;;;;;;;19.30;55.20;;;;;;6219441;28;19917;-68
2023/03/31 00:13:10;;;;;;;;;;;19.30;55.20;;;;;;6224297;28;19984;-68
2023/03/31 00:16:10;;;;;;;;;;;19.30;55.20;;;;;;6225717;28;19913;-68
2023/03/31 00:19:16;;;;;;;;;;;19.30;55.20;;;;;;6230273;28;20016;-68
2023/03/31 00:22:20;;;;;;;;;;;19.30;55.20;;;;;;6218989;28;19909;-68
2023/03/31 00:25:21;;;;;;;;;;;19.30;55.20;;;;;;6218625;28;19960;-68
2023/03/31 00:28:22;;;;;;;;;;;19.30;55.20;;;;;;6210499;28;19916;-68
2023/03/31 00:31:23;;;;;;;;;;;19.30;55.20;;;;;;6248139;28;20014;-68
2023/03/31 00:34:23;;;;;;;;;;;19.30;55.20;;;;;;6243174;28;19910;-68
2023/03/31 00:37:24;;;;;;;;;;;19.30;55.20;;;;;;6223587;28;20005;-68
2023/03/31 00:40:25;;;;;;;;;;;19.30;55.30;;;;;;6223950;28;19913;-68
2023/03/31 00:43:33;;;;;;;;;;;19.30;55.30;;;;;;6229706;28;19910;-68
2023/03/31 00:46:37;;;;;;;;;;;19.30;55.20;;;;;;6205613;28;19920;-68
2023/03/31 00:49:40;;;;;;;;;;;19.30;55.20;;;;;;6205864;28;19913;-68
2023/03/31 00:52:41;;;;;;;;;;;19.30;55.20;;;;;;6236824;28;19959;-68
2023/03/31 00:55:44;;;;;;;;;;;19.30;55.20;;;;;;6247810;28;19909;-67
2023/03/31 00:58:46;;;;;;;;;;;19.30;55.20;;;;;;6247209;28;19964;-68
2023/03/31 01:01:49;;;;;;;;;;;19.30;55.10;;;;;;6229815;28;19913;-68
2023/03/31 01:04:53;;;;;;;;;;;19.30;55.10;;;;;;6247276;28;19920;-68
2023/03/31 01:07:54;;;;;;;;;;;19.30;55.20;;;;;;6229613;28;19955;-68
2023/03/31 01:11:03;;;;;;;;;;;19.30;55.10;;;;;;6247449;28;19910;-68
2023/03/31 01:14:03;;;;;;;;;;;19.30;55.10;;;;;;6247252;28;19956;-68
2023/03/31 01:17:08;;;;;;;;;;;19.30;55.20;;;;;;6247136;28;19941;-68
2023/03/31 01:20:24;;;;;;;;;;;19.30;55.10;;;;;;6252477;28;20011;-68
2023/03/31 01:23:43;;;;;;;;;;;19.30;55.10;;;;;;6260015;28;19975;-68
2023/03/31 01:27:04;;;;;;;;;;;19.30;55.20;;;;;;6271977;28;19928;-68
2023/03/31 01:30:04;;;;;;;;;;;19.30;55.10;;;;;;6271511;28;20054;-68
2023/03/31 01:33:11;;;;;;;;;;;19.30;55.20;;;;;;6271686;28;19909;-68
2023/03/31 01:36:14;;;;;;;;;;;19.30;55.10;;;;;;6234053;28;19949;-68
2023/03/31 01:39:34;;;;;;;;;;;19.30;55.10;;;;;;6230862;28;19921;-68
2023/03/31 01:42:46;;;;;;;;;;;19.30;55.20;;;;;;6253675;28;19909;-68
2023/03/31 01:45:50;;;;;;;;;;;19.30;55.10;;;;;;6271638;28;19966;-66
2023/03/31 01:48:58;;;;;;;;;;;19.30;55.20;;;;;;6271541;28;19909;-66
2023/03/31 01:51:58;;;;;;;;;;;19.30;55.20;;;;;;6271679;28;19917;-66
2023/03/31 01:54:59;;;;;;;;;;;19.30;55.40;;;;;;6253634;28;19912;-66
2023/03/31 01:58:03;;;;;;;;;;;19.30;55.20;;;;;;6271230;28;19924;-66
2023/03/31 02:01:25;;;;;;;;;;;19.30;55.20;;;;;;6271469;28;20260;-66
2023/03/31 02:04:55;;;;;;;;;;;19.30;55.20;;;;;;6253039;28;19915;-66
2023/03/31 02:08:03;;;;;;;;;;;19.30;55.20;;;;;;6250272;28;19909;-66
2023/03/31 02:11:03;;;;;;;;;;;19.30;55.20;;;;;;6271177;28;20368;-66
2023/03/31 02:14:07;;;;;;;;;;;19.30;55.10;;;;;;6271010;28;19939;-66
2023/03/31 02:17:13;;;;;;;;;;;19.30;55.20;;;;;;6252955;28;20396;-66
2023/03/31 02:20:14;;;;;;;;;;;19.40;55.20;;;;;;6252885;28;19917;-66
2023/03/31 02:23:18;;;;;;;;;;;19.40;55.20;;;;;;6271000;28;20383;-66
2023/03/31 02:26:28;;;;;;;;;;;19.40;55.20;;;;;;6270593;28;20459;-66
2023/03/31 02:29:29;;;;;;;;;;;19.40;55.20;;;;;;6270760;28;19909;-66
2023/03/31 02:32:31;;;;;;;;;;;19.40;55.20;;;;;;6248640;28;19916;-66
2023/03/31 02:35:33;;;;;;;;;;;19.40;55.30;;;;;;6245988;28;19956;-66
2023/03/31 02:38:37;;;;;;;;;;;19.40;55.20;;;;;;6245324;28;19913;-66
2023/03/31 02:41:37;;;;;;;;;;;19.40;55.20;;;;;;6241847;28;19908;-66
2023/03/31 02:44:38;;;;;;;;;;;19.40;55.30;;;;;;6252314;28;19913;-66
2023/03/31 02:47:39;;;;;;;;;;;19.40;55.20;;;;;;6270451;28;19915;-66
2023/03/31 02:51:06;;;;;;;;;;;19.40;55.30;;;;;;6251946;28;20575;-66
2023/03/31 02:54:27;;;;;;;;;;;19.40;55.30;;;;;;6215010;28;19939;-66
2023/03/31 02:57:51;;;;;;;;;;;19.40;55.30;;;;;;6251972;28;19936;-66
2023/03/31 03:01:01;;;;;;;;;;;19.40;55.30;;;;;;6265028;28;19955;-66
2023/03/31 03:04:05;;;;;;;;;;;19.40;55.30;;;;;;6245170;28;19913;-66
2023/03/31 03:07:14;;;;;;;;;;;19.40;55.30;;;;;;6244886;28;19916;-66
2023/03/31 03:10:24;;;;;;;;;;;19.40;55.30;;;;;;6244801;28;19940;-66
2023/03/31 03:13:24;;;;;;;;;;;19.30;55.20;;;;;;6244706;28;19910;-67
2023/03/31 03:16:27;;;;;;;;;;;19.40;55.30;;;;;;6226944;28;19917;-67
2023/03/31 03:19:28;;;;;;;;;;;19.40;55.30;;;;;;6244229;28;19913;-66
2023/03/31 03:22:28;;;;;;;;;;;19.40;55.30;;;;;;6241485;28;20295;-67
2023/03/31 03:25:29;;;;;;;;;;;19.40;55.30;;;;;;6269070;28;19922;-67
2023/03/31 03:28:30;;;;;;;;;;;19.30;55.20;;;;;;6246089;28;19920;-68
2023/03/31 03:31:32;;;;;;;;;;;19.30;55.20;;;;;;6255625;28;20003;-67
2023/03/31 03:34:32;;;;;;;;;;;19.30;55.20;;;;;;6258683;28;19909;-66
2023/03/31 03:37:33;;;;;;;;;;;19.40;55.30;;;;;;6226845;28;19920;-67
2023/03/31 03:40:34;;;;;;;;;;;19.30;55.30;;;;;;6267940;28;19940;-67
2023/03/31 03:43:34;;;;;;;;;;;19.30;55.20;;;;;;6260511;28;19956;-67
2023/03/31 03:46:35;;;;;;;;;;;19.30;55.20;;;;;;6244292;28;19959;-67
2023/03/31 03:49:36;;;;;;;;;;;19.40;55.30;;;;;;6244166;28;20010;-67
2023/03/31 03:52:36;;;;;;;;;;;19.30;55.20;;;;;;6243925;28;19924;-68
2023/03/31 03:55:37;;;;;;;;;;;19.30;55.20;;;;;;6244456;28;19909;-67
2023/03/31 03:58:37;;;;;;;;;;;19.30;55.20;;;;;;6253228;28;19924;-67
2023/03/31 04:01:38;;;;;;;;;;;19.30;55.20;;;;;;6265560;28;19913;-67
2023/03/31 04:04:38;;;;;;;;;;;19.30;55.20;;;;;;6243816;28;19909;-67
2023/03/31 04:07:39;;;;;;;;;;;19.30;55.20;;;;;;6251233;28;20365;-68
2023/03/31 04:10:49;;;;;;;;;;;19.30;55.20;;;;;;6226166;28;19913;-68
2023/03/31 04:13:50;;;;;;;;;;;19.30;55.20;;;;;;6263081;28;19970;-67
2023/03/31 04:16:50;;;;;;;;;;;19.30;55.20;;;;;;6249894;28;19913;-67
2023/03/31 04:19:51;;;;;;;;;;;19.30;55.20;;;;;;6268546;28;19933;-67
2023/03/31 04:22:53;;;;;;;;;;;19.30;55.20;;;;;;6268145;28;20003;-67
2023/03/31 04:25:54;;;;;;;;;;;19.30;55.20;;;;;;6268771;28;19998;-67
2023/03/31 04:28:57;;;;;;;;;;;19.30;55.20;;;;;;6244588;28;19914;-68
2023/03/31 04:31:57;;;;;;;;;;;19.30;55.20;;;;;;6258149;28;19919;-68
2023/03/31 04:35:01;;;;;;;;;;;19.30;55.20;;;;;;6240863;28;20419;-67
2023/03/31 04:38:02;;;;;;;;;;;19.30;55.20;;;;;;6243913;28;20299;-67
2023/03/31 04:41:02;;;;;;;;;;;19.30;55.20;;;;;;6225712;28;19913;-67
2023/03/31 04:44:03;;;;;;;;;;;19.30;55.20;;;;;;6242379;28;20013;-67
2023/03/31 04:47:05;;;;;;;;;;;19.40;55.30;;;;;;6268195;28;19940;-67
2023/03/31 04:50:06;;;;;;;;;;;19.40;55.30;;;;;;6268163;28;19913;-67
2023/03/31 04:53:07;;;;;;;;;;;19.40;55.20;;;;;;6249926;28;19924;-66
2023/03/31 04:56:07;;;;;;;;;;;19.40;55.30;;;;;;6267763;28;19974;-67
2023/03/31 05:02:46;;;;;;;;;;;19.40;55.30;;;;;;6250825;28;19913;-67
2023/03/31 05:05:46;;;;;;;;;;;19.40;55.30;;;;;;6225479;28;19916;-67
2023/03/31 05:08:47;;;;;;;;;;;19.40;55.20;;;;;;6243096;28;19909;-68
2023/03/31 05:11:48;;;;;;;;;;;19.40;55.30;;;;;;6242980;28;19913;-67
2023/03/31 05:14:48;;;;;;;;;;;19.40;55.20;;;;;;6264626;28;19950;-67
2023/03/31 05:17:49;;;;;;;;;;;19.40;55.30;;;;;;6265180;28;20005;-68
2023/03/31 05:20:50;;;;;;;;;;;19.40;55.30;;;;;;6244823;28;19956;-68
2023/03/31 05:23:50;;;;;;;;;;;19.40;55.30;;;;;;6247865;28;19909;-68
2023/03/31 05:26:51;;;;;;;;;;;19.40;55.30;;;;;;6246682;28;19963;-67
2023/03/31 05:29:52;;;;;;;;;;;19.40;55.30;;;;;;6252034;28;19983;-68
2023/03/31 05:32:52;;;;;;;;;;;19.40;55.30;;;;;;6229006;28;20000;-69
2023/03/31 05:35:53;;;;;;;;;;;19.40;55.30;;;;;;6264168;28;19916;-69
2023/03/31 05:38:54;;;;;;;;;;;19.40;55.20;;;;;;6248960;28;19913;-69
2023/03/31 05:41:54;;;;;;;;;;;19.40;55.20;;;;;;6246420;28;20287;-70
2023/03/31 05:44:56;;;;;;;;;;;19.40;55.20;;;;;;6251444;28;20011;-69
2023/03/31 05:47:56;;;;;;;;;;;19.40;55.30;;;;;;6228538;28;19916;-70
2023/03/31 05:50:57;;;;;;;;;;;19.40;55.30;;;;;;6228386;28;19956;-69
2023/03/31 05:53:58;;;;;;;;;;;19.40;55.30;;;;;;6227875;28;19921;-69
2023/03/31 05:56:58;;;;;;;;;;;19.50;55.30;;;;;;6245815;28;19998;-69
2023/03/31 05:59:59;;;;;;;;;;;19.50;55.60;;;;;;6270846;28;19956;-69
2023/03/31 06:03:00;;;;;;;;;;;19.50;55.50;;;;;;6231073;28;19920;-69
2023/03/31 06:06:01;;;;;;;;;;;19.50;55.50;;;;;;6247781;28;20367;-69
2023/03/31 06:09:01;;;;;;;;;;;19.50;55.50;;;;;;6230343;28;19956;-70
2023/03/31 06:12:02;;;;;;;;;;;19.50;55.40;;;;;;6235551;28;19974;-69
2023/03/31 06:15:02;;;;;;;;;;;19.50;55.40;;;;;;6247792;28;19956;-69
2023/03/31 06:18:05;;;;;;;;;;;19.50;55.40;;;;;;6229376;28;19913;-70
2023/03/31 06:21:06;;;;;;;;;;;19.50;55.40;;;;;;6230734;28;19960;-70
2023/03/31 06:24:10;;;;;;;;;;;19.50;55.50;;;;;;6247648;28;19940;-70
2023/03/31 06:27:11;;;;;;;;;;;19.40;55.40;;;;;;6249031;28;19920;-69
2023/03/31 06:30:12;;;;;;;;;;;19.40;55.40;;;;;;6230398;28;19910;-69
2023/03/31 06:33:12;;;;;;;;;;;19.40;55.40;;;;;;6248019;28;19913;-69
2023/03/31 06:36:14;;;;;;;;;;;19.40;55.30;;;;;;6243176;28;19909;-69
2023/03/31 06:39:15;;;;;;;;;;;19.50;55.40;;;;;;6229275;28;20004;-69
2023/03/31 06:42:15;;;;;;;;;;;19.40;55.30;;;;;;6246501;28;19909;-67
2023/03/31 06:45:16;;;;;;;;;;;19.40;55.30;;;;;;6271907;28;19995;-69
2023/03/31 06:48:17;;;;;;;;;;;19.40;55.30;;;;;;6250907;28;19915;-69
2023/03/31 06:51:18;;;;;;;;;;;19.40;55.30;;;;;;6261073;28;20237;-69
2023/03/31 06:54:18;;;;;;;;;;;19.40;55.30;;;;;;6248193;28;20355;-69
2023/03/31 06:57:20;;;;;;;;;;;19.40;55.40;;;;;;6247266;28;19913;-70
2023/03/31 07:00:20;;;;;;;;;;;19.40;55.40;;;;;;6247044;28;19975;-70
2023/03/31 07:03:21;;;;;;;;;;;19.40;55.40;;;;;;6228929;28;19909;-70
2023/03/31 07:06:21;;;;;;;;;;;19.40;55.40;;;;;;6246874;28;20492;-69
2023/03/31 07:09:22;;;;;;;;;;;19.40;55.40;;;;;;6263276;28;20393;-69
2023/03/31 07:12:23;;;;;;;;;;;19.40;55.40;;;;;;6232515;28;19909;-70
2023/03/31 07:15:24;;;;;;;;;;;19.40;55.40;;;;;;6221535;28;19910;-69
2023/03/31 07:18:30;;;;;;;;;;;19.40;55.40;;;;;;6238530;28;19913;-70
2023/03/31 07:21:31;;;;;;;;;;;19.40;55.40;;;;;;6241629;28;19915;-69
2023/03/31 07:24:31;;;;;;;;;;;19.40;55.30;;;;;;6227443;28;20281;-70
2023/03/31 07:27:32;;;;;;;;;;;19.40;55.40;;;;;;6261986;28;20032;-69
2023/03/31 07:30:33;;;;;;;;;;;19.40;55.30;;;;;;6228269;28;19909;-70
2023/03/31 07:33:34;;;;;;;;;;;19.40;55.30;;;;;;6227805;28;19910;-69
2023/03/31 07:36:34;;;;;;;;;;;19.40;55.40;;;;;;6258337;28;19916;-69
2023/03/31 07:39:35;;;;;;;;;;;19.40;55.30;;;;;;6248235;28;20268;-70
2023/03/31 07:42:36;;;;;;;;;;;19.40;55.30;;;;;;6235691;28;19909;-70
2023/03/31 07:45:38;;;;;;;;;;;19.40;55.40;;;;;;6249247;28;19951;-70
2023/03/31 07:48:39;;;;;;;;;;;19.40;55.30;;;;;;6256512;28;19920;-72
2023/03/31 07:51:39;;;;;;;;;;;19.40;55.30;;;;;;6257378;28;19928;-70
2023/03/31 07:54:40;;;;;;;;;;;19.40;55.30;;;;;;6248731;28;19922;-71
2023/03/31 07:57:41;;;;;;;;;;;19.40;55.30;;;;;;6244470;28;20386;-70
2023/03/31 08:00:41;;;;;;;;;;;19.40;55.30;;;;;;6241266;28;19921;-70
2023/03/31 08:03:43;;;;;;;;;;;19.40;55.30;;;;;;6257822;28;19920;-70
2023/03/31 08:06:43;;;;;;;;;;;19.40;55.30;;;;;;6226991;28;19915;-70
2023/03/31 08:09:44;;;;;;;;;;;19.40;55.30;;;;;;6243979;28;19909;-71
2023/03/31 08:12:45;;;;;;;;;;;19.40;55.30;;;;;;6229382;28;20050;-70
2023/03/31 08:15:46;;;;;;;;;;;19.40;55.30;;;;;;6227880;28;19913;-70
2023/03/31 08:18:46;;;;;;;;;;;19.40;55.30;;;;;;6231591;28;19919;-70
2023/03/31 08:21:47;;;;;;;;;;;19.40;55.40;;;;;;6253036;28;19909;-70
2023/03/31 08:24:47;;;;;;;;;;;19.40;55.40;;;;;;6243829;28;20426;-71
2023/03/31 08:27:49;;;;;;;;;;;19.40;55.40;;;;;;6268980;28;19909;-71
2023/03/31 08:30:50;;;;;;;;;;;19.40;55.30;;;;;;6251339;28;20371;-71
2023/03/31 08:33:51;;;;;;;;;;;19.40;55.40;;;;;;6262518;28;19909;-71
2023/03/31 08:36:51;;;;;;;;;;;19.40;55.40;;;;;;6252247;28;19910;-71
2023/03/31 08:39:53;;;;;;;;;;;19.40;55.40;;;;;;6251170;28;20035;-71
2023/03/31 08:43:00;;;;;;;;;;;19.40;55.40;;;;;;6269465;28;19908;-71
2023/03/31 08:46:00;;;;;;;;;;;19.40;55.40;;;;;;6245552;28;20383;-71
2023/03/31 08:49:02;;;;;;;;;;;19.40;55.40;;;;;;6235742;28;19956;-71
2023/03/31 08:52:04;;;;;;;;;;;19.40;55.40;;;;;;6248971;28;19917;-71
2023/03/31 08:55:07;;;;;;;;;;;19.40;55.40;;;;;;6242661;28;19996;-71
2023/03/31 08:58:07;;;;;;;;;;;19.40;55.40;;;;;;6230762;28;19923;-72
2023/03/31 09:01:15;;;;;;;;;;;19.40;55.40;;;;;;6251789;28;19909;-71
2023/03/31 09:04:39;;;;;;;;;;;19.40;55.40;;;;;;6223038;28;19920;-71
2023/03/31 09:07:46;;;;;;;;;;;19.40;55.40;;;;;;6246902;28;20345;-72
2023/03/31 09:10:55;;;;;;;;;;;19.40;55.40;;;;;;6237860;28;20383;-73
2023/03/31 09:14:02;;;;;;;;;;;19.40;55.40;;;;;;6248311;28;20371;-66
2023/03/31 09:17:02;;;;;;;;;;;19.40;55.40;;;;;;6248409;28;20039;-67
2023/03/31 09:20:06;;;;;;;;;;;19.40;55.40;;;;;;6248599;28;19913;-71
2023/03/31 09:23:26;;;;;;;;;;;19.40;55.40;;;;;;6248312;28;20430;-71
2023/03/31 09:26:45;;;;;;;;;;;19.40;55.40;;;;;;6234148;28;19996;-71
2023/03/31 09:29:45;;;;;;;;;;;19.40;55.40;;;;;;6230282;28;19917;-70
2023/03/31 09:32:51;;;;;;;;;;;19.40;55.40;;;;;;6230559;28;20000;-71
2023/03/31 09:35:52;;;;;;;;;;;19.40;55.40;;;;;;6230720;28;20406;-71
2023/03/31 09:38:53;;;;;;;;;;;19.40;55.40;;;;;;6224974;28;19917;-71
2023/03/31 09:41:54;;;;;;;;;;;19.40;55.40;;;;;;6254900;28;19909;-73
2023/03/31 09:44:55;;;;;;;;;;;19.40;55.40;;;;;;6273179;28;19909;-71
2023/03/31 09:47:56;;;;;;;;;;;19.40;55.50;;;;;;6255337;28;19916;-71
2023/03/31 09:50:59;;;;;;;;;;;19.40;55.40;;;;;;6259021;28;20375;-72
2023/03/31 09:54:00;;;;;;;;;;;19.40;55.40;;;;;;6201743;28;19926;-71
2023/03/31 09:57:00;;;;;;;;;;;19.40;55.40;;;;;;6220982;28;19918;-71
2023/03/31 10:00:21;;;;;;;;;;;19.40;55.40;;;;;;6217499;28;19929;-71
2023/03/31 10:03:23;;;;;;;;;;;19.40;55.50;;;;;;6223212;28;19913;-72
2023/03/31 10:06:25;;;;;;;;;;;19.40;55.40;;;;;;6222874;28;19909;-71
2023/03/31 10:09:27;;;;;;;;;;;19.40;55.40;;;;;;6222130;28;19909;-72
2023/03/31 10:12:28;;;;;;;;;;;19.40;55.50;;;;;;6206664;28;19920;-71
2023/03/31 10:15:29;;;;;;;;;;;19.40;55.50;;;;;;6205511;28;19910;-71
2023/03/31 10:18:34;;;;;;;;;;;19.40;55.40;;;;;;6205548;28;19918;-71
2023/03/31 10:21:37;;;;;;;;;;;19.40;55.50;;;;;;6222911;28;19992;-72
2023/03/31 10:24:38;;;;;;;;;;;19.40;55.40;;;;;;6204929;28;19917;-71
2023/03/31 10:27:40;;;;;;;;;;;19.40;55.40;;;;;;6204835;28;19996;-72
2023/03/31 10:30:46;;;;;;;;;;;19.40;55.50;;;;;;6222684;28;20412;-70
2023/03/31 10:33:47;;;;;;;;;;;19.40;55.40;;;;;;6235477;28;19977;-71
2023/03/31 10:36:50;;;;;;;;;;;19.40;55.70;;;;;;6222471;28;19920;-70
2023/03/31 10:40:20;;;;;;;;;;;19.40;55.60;;;;;;6222444;28;20472;-71
2023/03/31 10:43:28;;;;;;;;;;;19.40;55.50;;;;;;6201292;28;19910;-70
2023/03/31 10:46:58;;;;;;;;;;;19.40;55.50;;;;;;6222379;28;19926;-69
2023/03/31 10:50:03;;;;;;;;;;;19.40;55.50;;;;;;6204424;28;19917;-70
2023/03/31 10:53:06;;;;;;;;;;;19.40;55.60;;;;;;6220733;28;19976;-70
2023/03/31 10:56:06;;;;;;;;;;;19.40;55.60;;;;;;6233004;28;20330;-70
2023/03/31 10:59:13;;;;;;;;;;;19.50;55.70;;;;;;6249511;28;19928;-71
2023/03/31 11:02:32;;;;;;;;;;;19.50;55.70;;;;;;6270961;28;19909;-70
2023/03/31 11:05:36;;;;;;;;;;;19.50;55.60;;;;;;6232239;28;19917;-72
2023/03/31 11:08:45;;;;;;;;;;;19.50;55.70;;;;;;6205570;28;19910;-72
2023/03/31 11:11:45;;;;;;;;;;;19.50;55.60;;;;;;6246065;28;20386;-71
2023/03/31 11:14:49;;;;;;;;;;;19.50;55.60;;;;;;6228256;28;19909;-71
2023/03/31 11:18:02;;;;;;;;;;;19.50;55.70;;;;;;6228109;28;19914;-71
2023/03/31 11:21:19;;;;;;;;;;;19.50;55.60;;;;;;6246565;28;19920;-70
2023/03/31 11:24:25;;;;;;;;;;;19.50;55.60;;;;;;6247507;28;20302;-72
2023/03/31 11:27:34;;;;;;;;;;;19.50;55.60;;;;;;6245632;28;19914;-72
2023/03/31 11:30:41;;;;;;;;;;;19.50;55.60;;;;;;6227995;28;19916;-70
2023/03/31 11:33:44;;;;;;;;;;;19.50;55.60;;;;;;6265959;28;19917;-69
2023/03/31 11:37:04;;;;;;;;;;;19.50;55.70;;;;;;6226431;28;19980;-70
2023/03/31 11:40:28;;;;;;;;;;;19.50;55.60;;;;;;6254027;28;19919;-70
2023/03/31 11:43:33;;;;;;;;;;;19.50;55.70;;;;;;6245836;28;19916;-72
2023/03/31 11:46:40;;;;;;;;;;;19.50;55.70;;;;;;6269525;28;19917;-72
2023/03/31 11:49:43;;;;;;;;;;;19.50;55.80;;;;;;6252068;28;19917;-70
2023/03/31 11:53:01;;;;;;;;;;;19.50;55.80;;;;;;6250751;28;21361;-69
2023/03/31 11:56:03;;;;;;;;;;;19.50;55.80;;;;;;6252758;28;19941;-72
2023/03/31 11:59:05;;;;;;;;;;;19.50;55.80;;;;;;6252162;28;19917;-73
2023/03/31 12:02:14;;;;;;;;;;;19.50;55.80;;;;;;6239738;28;19958;-72
2023/03/31 12:05:16;;;;;;;;;;;19.50;55.80;;;;;;6250967;28;19909;-70
2023/03/31 12:08:17;;;;;;;;;;;19.50;55.80;;;;;;6238291;28;19957;-70
2023/03/31 12:11:36;;;;;;;;;;;19.50;55.70;;;;;;6258348;28;20329;-72
2023/03/31 12:14:39;;;;;;;;;;;19.50;55.80;;;;;;6244986;28;19916;-72
2023/03/31 12:17:42;;;;;;;;;;;19.50;55.70;;;;;;6218352;28;20636;-69
2023/03/31 12:20:54;;;;;;;;;;;19.50;55.70;;;;;;6243767;28;19913;-70
2023/03/31 12:23:55;;;;;;;;;;;19.50;55.60;;;;;;6258539;28;19979;-71
2023/03/31 12:27:05;;;;;;;;;;;19.50;55.60;;;;;;6266298;28;20364;-72
2023/03/31 12:30:06;;;;;;;;;;;19.50;55.60;;;;;;6273204;28;19944;-72
2023/03/31 12:33:21;;;;;;;;;;;19.50;55.70;;;;;;6255300;28;19931;-72
2023/03/31 12:36:38;;;;;;;;;;;19.50;55.60;;;;;;6264221;28;19909;-72
2023/03/31 12:39:39;;;;;;;;;;;19.50;55.60;;;;;;6239563;28;19914;-72
2023/03/31 12:42:59;;;;;;;;;;;19.50;55.60;;;;;;6230025;28;19971;-69
2023/03/31 12:46:05;;;;;;;;;;;19.50;55.60;;;;;;6224159;28;20101;-70
2023/03/31 12:49:22;;;;;;;;;;;19.50;55.70;;;;;;6226371;28;19916;-72
2023/03/31 12:52:31;;;;;;;;;;;19.50;55.70;;;;;;6273174;28;19921;-72
2023/03/31 12:55:35;;;;;;;;;;;19.50;55.60;;;;;;6269972;28;19913;-71
2023/03/31 12:58:36;;;;;;;;;;;19.50;55.60;;;;;;6254966;28;19923;-71
2023/03/31 13:01:57;;;;;;;;;;;19.50;55.60;;;;;;6272476;28;19959;-70
2023/03/31 13:04:58;;;;;;;;;;;19.50;55.70;;;;;;6257168;28;19917;-70
2023/03/31 13:07:59;;;;;;;;;;;19.50;55.70;;;;;;6269298;28;19912;-65
2023/03/31 13:10:59;;;;;;;;;;;19.50;55.60;;;;;;6272290;28;19927;-69
2023/03/31 13:14:05;;;;;;;;;;;19.50;55.70;;;;;;6254165;28;19919;-69
2023/03/31 13:17:21;;;;;;;;;;;19.50;55.70;;;;;;6254826;28;20005;-70
2023/03/31 13:20:30;;;;;;;;;;;19.50;55.60;;;;;;6257723;28;19913;-71
2023/03/31 13:23:33;;;;;;;;;;;19.50;55.60;;;;;;6229679;28;20295;-72
2023/03/31 13:26:33;;;;;;;;;;;19.50;55.60;;;;;;6247984;28;19909;-73
2023/03/31 13:29:34;;;;;;;;;;;19.50;55.60;;;;;;6256503;28;20406;-73
2023/03/31 13:32:35;;;;;;;;;;;19.50;55.60;;;;;;6253909;28;19968;-71
2023/03/31 13:35:38;;;;;;;;;;;19.50;55.60;;;;;;6254220;28;19916;-71
2023/03/31 13:38:58;;;;;;;;;;;19.50;55.60;;;;;;6229681;28;19913;-71
2023/03/31 13:42:22;;;;;;;;;;;19.50;55.60;;;;;;6208897;28;19916;-71
2023/03/31 13:45:47;;;;;;;;;;;19.50;55.60;;;;;;6200208;28;19913;-73
2023/03/31 13:49:06;;;;;;;;;;;19.50;55.70;;;;;;6230000;28;20003;-71
2023/03/31 13:52:10;;;;;;;;;;;19.50;55.60;;;;;;6246679;28;19921;-74
2023/03/31 13:55:20;;;;;;;;;;;19.50;55.60;;;;;;6249905;28;20291;-72
2023/03/31 13:58:20;;;;;;;;;;;19.50;55.60;;;;;;6208752;28;19917;-73
2023/03/31 14:01:31;;;;;;;;;;;19.50;55.70;;;;;;6265605;28;20433;-71
2023/03/31 14:04:50;;;;;;;;;;;19.50;55.60;;;;;;6225620;28;19910;-72
2023/03/31 14:07:55;;;;;;;;;;;19.50;55.60;;;;;;6246873;28;20005;-73
2023/03/31 14:11:14;;;;;;;;;;;19.50;55.60;;;;;;6235986;28;19916;-70
2023/03/31 14:14:16;;;;;;;;;;;19.40;55.50;;;;;;6269844;28;19999;-74
2023/03/31 14:17:17;;;;;;;;;;;19.50;55.60;;;;;;6271425;28;19923;-73
2023/03/31 14:20:20;;;;;;;;;;;19.50;55.60;;;;;;6271202;28;19912;-73
2023/03/31 14:23:21;;;;;;;;;;;19.50;55.70;;;;;;6264484;28;19969;-71
2023/03/31 14:26:41;;;;;;;;;;;19.50;55.70;;;;;;6244479;28;20306;-71
2023/03/31 14:29:56;;;;;;;;;;;19.50;55.80;;;;;;6253408;28;20366;-74
2023/03/31 14:33:12;;;;;;;;;;;19.50;55.70;;;;;;6252625;28;20004;-73
2023/03/31 14:36:14;;;;;;;;;;;19.50;55.70;;;;;;6246506;28;19909;-73
2023/03/31 14:39:20;;;;;;;;;;;19.50;55.60;;;;;;6253200;28;19981;-72
2023/03/31 14:42:24;;;;;;;;;;;19.50;55.70;;;;;;6270214;28;19913;-73
2023/03/31 14:45:30;;;;;;;;;;;19.50;55.60;;;;;;6252392;28;19916;-73
2023/03/31 14:48:33;;;;;;;;;;;19.50;55.70;;;;;;6252731;28;19923;-73
2023/03/31 14:51:33;;;;;;;;;;;19.50;55.60;;;;;;6252433;28;20015;-73
2023/03/31 14:54:37;;;;;;;;;;;19.50;55.60;;;;;;6270576;28;20406;-73
2023/03/31 14:57:40;;;;;;;;;;;19.50;55.70;;;;;;6230932;28;19909;-71
2023/03/31 15:00:41;;;;;;;;;;;19.50;55.70;;;;;;6250427;28;19916;-71
2023/03/31 15:03:41;;;;;;;;;;;19.50;55.60;;;;;;6252503;28;19979;-71
2023/03/31 15:06:46;;;;;;;;;;;19.50;55.60;;;;;;6257320;28;20010;-71
2023/03/31 15:09:49;;;;;;;;;;;19.50;55.60;;;;;;6264800;28;19958;-71
2023/03/31 15:12:50;;;;;;;;;;;19.50;55.60;;;;;;6230574;28;20009;-70
2023/03/31 15:15:51;;;;;;;;;;;19.50;55.70;;;;;;6227334;28;20327;-72
2023/03/31 15:18:55;;;;;;;;;;;19.50;55.60;;;;;;6227928;28;19928;-71
2023/03/31 15:22:01;;;;;;;;;;;19.50;55.60;;;;;;6244974;28;20056;-72
2023/03/31 15:25:02;;;;;;;;;;;19.50;55.60;;;;;;6241245;28;19913;-72
2023/03/31 15:28:05;;;;;;;;;;;19.50;55.70;;;;;;6251235;28;20277;-73
2023/03/31 15:31:06;;;;;;;;;;;19.50;55.60;;;;;;6266933;28;19924;-74
2023/03/31 15:34:28;;;;;;;;;;;19.50;55.70;;;;;;6227742;28;19909;-74
2023/03/31 15:37:33;;;;;;;;;;;19.50;55.70;;;;;;6240386;28;20528;-72
2023/03/31 15:40:39;;;;;;;;;;;19.50;55.70;;;;;;6269625;28;19939;-72
2023/03/31 15:44:01;;;;;;;;;;;19.50;55.60;;;;;;6247311;28;19913;-72
2023/03/31 15:47:12;;;;;;;;;;;19.50;55.70;;;;;;6227000;28;19909;-74
2023/03/31 15:50:13;;;;;;;;;;;19.50;55.70;;;;;;6227117;28;20602;-75
2023/03/31 15:53:24;;;;;;;;;;;19.50;55.60;;;;;;6226366;28;19928;-74
2023/03/31 15:56:37;;;;;;;;;;;19.50;55.70;;;;;;6221083;28;20019;-73
2023/03/31 15:59:54;;;;;;;;;;;19.50;55.70;;;;;;6244645;28;19968;-72
2023/03/31 16:02:55;;;;;;;;;;;19.50;55.60;;;;;;6226189;28;20435;-71
2023/03/31 16:05:57;;;;;;;;;;;19.50;55.60;;;;;;6244480;28;19972;-76
2023/03/31 16:09:05;;;;;;;;;;;19.50;55.70;;;;;;6227060;28;20411;-72
2023/03/31 16:12:10;;;;;;;;;;;19.50;55.60;;;;;;6249164;28;20360;-71
2023/03/31 16:15:13;;;;;;;;;;;19.50;55.70;;;;;;6269693;28;20455;-71
2023/03/31 16:18:16;;;;;;;;;;;19.50;55.60;;;;;;6249519;28;19909;-72
2023/03/31 16:21:25;;;;;;;;;;;19.50;55.70;;;;;;6259769;28;19920;-71
2023/03/31 16:24:30;;;;;;;;;;;19.50;55.70;;;;;;6258725;28;19909;-72
2023/03/31 16:27:35;;;;;;;;;;;19.50;55.70;;;;;;6224585;28;19913;-72
2023/03/31 16:30:37;;;;;;;;;;;19.50;55.70;;;;;;6256711;28;19915;-70
2023/03/31 16:33:55;;;;;;;;;;;19.50;55.70;;;;;;6254604;28;19944;-72
2023/03/31 16:36:55;;;;;;;;;;;19.50;55.70;;;;;;6224340;28;19920;-71
2023/03/31 16:39:56;;;;;;;;;;;19.50;55.70;;;;;;6263891;28;20459;-72
2023/03/31 16:43:16;;;;;;;;;;;19.50;55.70;;;;;;6265994;28;19920;-71
2023/03/31 16:46:17;;;;;;;;;;;19.50;55.70;;;;;;6266139;28;19947;-71
2023/03/31 16:49:18;;;;;;;;;;;19.50;55.70;;;;;;6248572;28;19909;-72
2023/03/31 16:52:18;;;;;;;;;;;19.50;55.70;;;;;;6265992;28;19943;-71
2023/03/31 16:55:19;;;;;;;;;;;19.50;55.70;;;;;;6245458;28;20375;-72
2023/03/31 16:58:20;;;;;;;;;;;19.50;55.70;;;;;;6226094;28;19979;-72
2023/03/31 17:01:20;;;;;;;;;;;19.50;55.70;;;;;;6235341;28;20362;-73
2023/03/31 17:04:22;;;;;;;;;;;19.50;55.70;;;;;;6228216;28;20411;-71
2023/03/31 17:07:22;;;;;;;;;;;19.50;55.70;;;;;;6242160;28;19909;-72
2023/03/31 17:10:23;;;;;;;;;;;19.50;56.40;;;;;;6246059;28;19956;-73
2023/03/31 17:13:24;;;;;;;;;;;19.50;55.70;;;;;;6250548;28;19909;-73
2023/03/31 17:16:25;;;;;;;;;;;19.50;55.70;;;;;;6271357;28;20386;-72
2023/03/31 17:19:26;;;;;;;;;;;19.50;55.70;;;;;;6260713;28;19921;-69
2023/03/31 17:22:27;;;;;;;;;;;19.50;55.70;;;;;;6245599;28;19909;-69
2023/03/31 17:25:27;;;;;;;;;;;19.50;55.80;;;;;;6260733;28;19936;-70
2023/03/31 17:28:29;;;;;;;;;;;19.50;55.80;;;;;;6250531;28;19909;-72
2023/03/31 17:31:30;;;;;;;;;;;19.50;55.80;;;;;;6252855;28;20334;-72
2023/03/31 17:34:31;;;;;;;;;;;19.50;55.70;;;;;;6259064;28;19913;-71
2023/03/31 17:37:32;;;;;;;;;;;19.50;55.80;;;;;;6203952;28;19910;-72
2023/03/31 17:40:33;;;;;;;;;;;19.50;55.80;;;;;;6249635;28;19917;-72
2023/03/31 17:43:34;;;;;;;;;;;19.50;55.80;;;;;;6249999;28;19913;-72
2023/03/31 17:46:35;;;;;;;;;;;19.50;55.80;;;;;;6245651;28;19955;-72
2023/03/31 17:49:36;;;;;;;;;;;19.50;55.80;;;;;;6255563;28;19909;-72
2023/03/31 17:52:37;;;;;;;;;;;19.50;55.80;;;;;;6270166;28;19921;-71
2023/03/31 17:55:38;;;;;;;;;;;19.50;55.80;;;;;;6254825;28;19963;-71